Time;durP1;ratioP1;P1;durP2;ratioP2;P2;SDS_P1;SDS_P2;PMS_P1;PMS_P2;Temp;Humidity;BMP_temperature;BMP_pressure;BME280_temperature;BME280_humidity;BME280_pressure;Samples;Min_cycle;Max_cycle;Signal;HPM_P1;HPM_P2
2023/08/06 00:01:43;;;;;;;1.05;0.55;;;;;;;14.23;100.00;93635.69;5059040;28;20056;-85
2023/08/06 00:04:09;;;;;;;0.63;0.43;;;;;;;14.32;100.00;93636.50;5057759;28;20371;-85
2023/08/06 00:06:34;;;;;;;0.80;0.50;;;;;;;14.33;100.00;93635.41;5057035;28;20029;-85
2023/08/06 00:08:59;;;;;;;0.40;0.30;;;;;;;14.35;100.00;93629.84;5057662;28;20473;-85
2023/08/06 00:11:25;;;;;;;0.35;0.20;;;;;;;14.44;100.00;93629.84;5058250;28;20025;-85
2023/08/06 00:13:50;;;;;;;0.47;0.43;;;;;;;14.56;100.00;93627.34;5058864;28;20064;-85
2023/08/06 00:16:16;;;;;;;4.50;0.50;;;;;;;14.72;100.00;93624.31;5057628;28;20040;-85
2023/08/06 00:18:41;;;;;;;5.75;0.60;;;;;;;15.00;100.00;93631.88;5056752;28;20031;-84
2023/08/06 00:21:07;;;;;;;1.27;0.60;;;;;;;15.63;100.00;93626.09;5057546;28;20029;-85
2023/08/06 00:23:32;;;;;;;4.45;0.63;;;;;;;15.99;100.00;93624.84;5057444;28;20058;-86
2023/08/06 00:25:57;;;;;;;1.38;0.55;;;;;;;16.16;100.00;93621.34;5062521;28;20025;-86
2023/08/06 00:31:28;;;;;;;1.40;0.60;;;;;;;16.35;100.00;93605.06;5063853;28;20030;-84
2023/08/06 00:33:53;;;;;;;1.42;0.60;;;;;;;16.32;100.00;93603.06;5071388;28;20037;-85
2023/08/06 00:36:56;;;;;;;2.47;0.60;;;;;;;16.14;100.00;93593.69;5043005;28;20021;-85
2023/08/06 00:39:22;;;;;;;2.10;0.60;;;;;;;15.48;100.00;93601.00;5051949;28;20033;-86
2023/08/06 00:41:48;;;;;;;3.10;0.60;;;;;;;15.47;100.00;93600.22;5036944;28;20346;-85
2023/08/06 00:44:13;;;;;;;3.05;0.50;;;;;;;15.07;100.00;93596.00;5037108;28;20040;-85
2023/08/06 00:46:39;;;;;;;1.45;0.40;;;;;;;14.96;100.00;93600.81;5037057;28;20095;-84
2023/08/06 00:49:23;;;;;;;4.55;0.57;;;;;;;15.09;100.00;93593.84;5036655;28;20037;-84
2023/08/06 00:54:34;;;;;;;2.95;0.93;;;;;;;15.21;100.00;93593.16;5036801;28;20079;-86
2023/08/06 00:57:01;;;;;;;2.50;0.60;;;;;;;15.55;100.00;93588.09;5020089;28;20120;-86
2023/08/06 01:02:11;;;;;;;0.88;0.60;;;;;;;16.01;100.00;93583.06;5037681;28;20060;-84
2023/08/06 01:04:36;;;;;;;1.52;0.70;;;;;;;16.14;100.00;93575.19;5036439;28;20029;-85
2023/08/06 01:07:18;;;;;;;2.35;0.70;;;;;;;15.79;100.00;93582.22;5037807;28;20427;-86
2023/08/06 01:10:33;;;;;;;0.90;0.60;;;;;;;15.23;100.00;93582.31;5035720;28;20061;-84
2023/08/06 01:13:06;;;;;;;2.63;0.45;;;;;;;15.06;100.00;93583.13;5033913;28;20045;-86
2023/08/06 01:15:36;;;;;;;1.20;0.80;;;;;;;14.74;100.00;93577.31;5036438;28;20497;-85
2023/08/06 01:18:02;;;;;;;1.80;0.70;;;;;;;14.64;100.00;93583.66;5034067;28;20095;-85
2023/08/06 01:20:46;;;;;;;1.33;0.55;;;;;;;14.91;100.00;93579.13;5034454;28;20041;-85
2023/08/06 01:23:12;;;;;;;0.50;0.40;;;;;;;15.00;100.00;93576.47;5035633;28;20134;-85
2023/08/06 01:31:31;;;;;;;2.25;0.63;;;;;;;16.08;100.00;93582.56;5035623;28;20083;-84
2023/08/06 01:33:58;;;;;;;2.65;0.80;;;;;;;16.14;100.00;93588.41;5034710;28;20041;-85
2023/08/06 01:36:42;;;;;;;2.00;0.60;;;;;;;16.18;100.00;93584.81;5034683;28;20120;-85
2023/08/06 01:39:08;;;;;;;2.08;0.70;;;;;;;16.32;100.00;93581.13;5050700;28;20132;-85
2023/08/06 01:41:33;;;;;;;5.03;0.55;;;;;;;16.41;100.00;93587.13;5035679;28;20119;-85
2023/08/06 01:44:17;;;;;;;1.35;0.47;;;;;;;16.53;100.00;93578.47;5034365;28;20029;-86
2023/08/06 01:52:11;;;;;;;4.93;0.52;;;;;;;16.66;100.00;93577.44;5035370;28;20180;-86
2023/08/06 01:57:39;;;;;;;4.03;0.65;;;;;;;16.78;100.00;93575.94;5035293;28;20047;-86
2023/08/06 02:00:05;;;;;;;3.58;0.35;;;;;;;16.76;100.00;93564.91;5034677;28;20370;-85
2023/08/06 02:05:14;;;;;;;0.30;0.30;;;;;;;16.75;100.00;93569.41;5035315;28;20083;-86
2023/08/06 02:07:40;;;;;;;0.40;0.30;;;;;;;17.05;96.36;93560.63;5034297;28;20037;-86
2023/08/06 02:10:06;;;;;;;2.25;0.50;;;;;;;17.44;92.96;93565.63;5044543;28;20127;-86
2023/08/06 02:12:31;;;;;;;0.70;0.50;;;;;;;17.49;89.43;93568.84;5055208;28;20032;-86
2023/08/06 02:14:57;;;;;;;0.47;0.38;;;;;;;17.14;94.79;93573.75;5055125;28;20029;-86
2023/08/06 02:17:22;;;;;;;1.50;0.60;;;;;;;17.00;100.00;93560.81;5055399;28;20036;-87
2023/08/06 02:19:48;;;;;;;1.88;0.40;;;;;;;16.98;96.85;93561.13;5053580;28;20024;-84
2023/08/06 02:22:32;;;;;;;1.33;0.30;;;;;;;16.99;93.38;93553.94;5054855;28;20361;-84
2023/08/06 02:25:16;;;;;;;5.72;0.50;;;;;;;16.95;94.17;93553.84;5055001;28;20036;-85
2023/08/06 02:27:41;;;;;;;;;;;;;;;16.87;95.20;93544.09;5055531;28;20541;-86
2023/08/06 02:30:07;;;;;;;3.70;0.50;;;;;;;16.70;99.15;93543.19;5057581;28;19988;-84
2023/08/06 02:32:35;;;;;;;2.65;0.60;;;;;;;16.76;94.27;93533.94;5057642;28;20283;-84
2023/08/06 02:35:01;;;;;;;3.30;0.32;;;;;;;16.88;91.62;93535.06;5057947;28;20127;-83
2023/08/06 02:37:26;;;;;;;0.80;0.40;;;;;;;16.87;90.72;93539.59;5057859;28;20112;-84
2023/08/06 02:39:51;;;;;;;0.40;0.40;;;;;;;16.73;93.30;93536.47;5057220;28;20037;-84
2023/08/06 02:42:23;;;;;;;0.63;0.40;;;;;;;16.64;94.20;93529.38;5041018;28;20509;-85
2023/08/06 02:44:49;;;;;;;0.90;0.40;;;;;;;16.53;92.55;93522.97;5058786;28;20155;-84
2023/08/06 02:47:14;;;;;;;4.22;0.40;;;;;;;16.49;99.88;93528.13;5058985;28;20506;-85
2023/08/06 02:52:23;;;;;;;;;;;;;;;15.48;100.00;93512.03;5058028;28;20167;-86
2023/08/06 02:55:07;;;;;;;0.30;0.30;;;;;;;15.88;100.00;93508.22;5057380;28;20006;-86
2023/08/06 03:00:20;;;;;;;0.30;0.20;;;;;;;16.13;100.00;93503.09;5056894;28;20086;-85
2023/08/06 03:02:45;;;;;;;0.65;0.40;;;;;;;16.02;100.00;93505.34;5057469;28;20368;-85
2023/08/06 03:05:11;;;;;;;1.13;0.38;;;;;;;15.93;100.00;93507.28;5057140;28;20029;-85
2023/08/06 03:07:37;;;;;;;1.27;0.50;;;;;;;16.26;98.77;93509.19;5057378;28;20446;-85
2023/08/06 03:10:21;;;;;;;0.50;0.20;;;;;;;16.00;100.00;93502.25;5058113;28;20033;-85
2023/08/06 03:13:05;;;;;;;1.85;0.30;;;;;;;16.38;94.03;93506.59;5058579;28;20044;-85
2023/08/06 03:15:30;;;;;;;1.38;0.50;;;;;;;16.75;90.31;93505.19;5058198;28;20040;-86
2023/08/06 03:18:15;;;;;;;1.17;0.52;;;;;;;16.63;92.44;93503.25;5058381;28;20040;-85
2023/08/06 03:20:40;;;;;;;0.57;0.40;;;;;;;16.45;93.16;93500.03;5058006;28;20044;-86
2023/08/06 03:23:05;;;;;;;0.98;0.52;;;;;;;16.05;100.00;93493.34;5056683;28;20033;-85
2023/08/06 03:25:31;;;;;;;0.60;0.30;;;;;;;15.79;100.00;93502.22;5057026;28;20029;-84
2023/08/06 03:27:56;;;;;;;4.13;0.50;;;;;;;15.46;100.00;93495.75;5040284;28;20029;-85
2023/08/06 03:30:21;;;;;;;3.45;0.40;;;;;;;15.42;100.00;93492.16;5056589;28;20744;-85
2023/08/06 03:33:06;;;;;;;3.47;0.40;;;;;;;15.75;100.00;93503.94;5057876;28;20091;-85
2023/08/06 03:35:31;;;;;;;1.60;0.30;;;;;;;15.73;100.00;93495.56;5056541;28;20025;-85
2023/08/06 03:37:57;;;;;;;0.60;0.30;;;;;;;15.69;100.00;93498.84;5056513;28;20029;-84
2023/08/06 03:40:22;;;;;;;0.85;0.40;;;;;;;15.59;100.00;93496.59;5056744;28;20339;-85
2023/08/06 03:43:06;;;;;;;0.65;0.40;;;;;;;15.82;100.00;93501.59;5058730;28;20055;-85
2023/08/06 03:45:51;;;;;;;2.58;0.30;;;;;;;15.50;100.00;93493.25;5058174;28;20119;-84
2023/08/06 03:48:16;;;;;;;2.95;0.40;;;;;;;15.65;100.00;93497.97;5058048;28;20461;-84
2023/08/06 03:51:01;;;;;;;0.93;0.32;;;;;;;16.03;96.01;93495.53;5056302;28;20029;-84
2023/08/06 03:53:27;;;;;;;0.47;0.30;;;;;;;16.33;92.96;93487.53;5063782;28;20430;-85
2023/08/06 03:55:53;;;;;;;0.90;0.30;;;;;;;16.29;94.71;93482.13;5061330;28;20039;-85
2023/08/06 03:58:18;;;;;;;0.40;0.30;;;;;;;16.41;89.82;93484.03;5039576;28;20068;-86
2023/08/06 04:01:02;;;;;;;0.60;0.43;;;;;;;16.55;87.65;93486.38;5037774;28;20434;-85
2023/08/06 04:03:28;;;;;;;0.43;0.30;;;;;;;16.54;89.80;93482.97;5039171;28;20350;-85
2023/08/06 04:06:12;;;;;;;0.50;0.30;;;;;;;16.30;93.50;93481.03;5038980;28;20042;-85
2023/08/06 04:08:37;;;;;;;0.82;0.35;;;;;;;16.10;100.00;93472.03;5038675;28;20037;-84
2023/08/06 04:11:22;;;;;;;1.65;0.38;;;;;;;15.35;100.00;93474.22;5046542;28;20086;-84
2023/08/06 04:14:06;;;;;;;0.47;0.30;;;;;;;15.23;100.00;93477.53;5058405;28;20029;-85
2023/08/06 04:16:50;;;;;;;1.52;0.60;;;;;;;15.30;100.00;93479.66;5058683;28;20319;-85
2023/08/06 04:19:15;;;;;;;;;;;;;;;15.36;100.00;93481.03;5058829;28;20319;-86
2023/08/06 04:21:59;;;;;;;0.40;0.40;;;;;;;15.36;100.00;93467.06;5057267;28;20023;-85
2023/08/06 04:24:24;;;;;;;0.65;0.40;;;;;;;15.36;100.00;93475.78;5057178;28;20438;-84
2023/08/06 04:29:53;;;;;;;0.95;0.30;;;;;;;15.75;100.00;93480.19;5057144;28;20083;-85
2023/08/06 04:32:37;;;;;;;3.50;0.47;;;;;;;16.17;96.59;93480.19;5058192;28;20029;-84
2023/08/06 04:35:03;;;;;;;0.60;0.40;;;;;;;16.25;96.95;93482.00;5057001;28;20028;-85
2023/08/06 04:37:30;;;;;;;0.80;0.40;;;;;;;16.55;90.75;93478.44;5057188;28;20043;-85
2023/08/06 04:39:56;;;;;;;0.40;0.30;;;;;;;16.48;94.14;93475.59;5056955;28;20052;-84
2023/08/06 04:42:21;;;;;;;1.10;0.35;;;;;;;16.50;92.57;93482.09;5056808;28;20362;-86
2023/08/06 04:45:05;;;;;;;2.28;0.40;;;;;;;16.46;94.78;93478.53;5040676;28;20029;-85
2023/08/06 04:47:31;;;;;;;2.05;0.30;;;;;;;16.55;95.24;93489.03;5057962;28;20453;-85
2023/08/06 04:50:15;;;;;;;0.40;0.40;;;;;;;16.58;91.25;93484.97;5056840;28;20033;-85
2023/08/06 04:52:40;;;;;;;1.33;0.32;;;;;;;16.60;100.00;93495.97;5057060;28;20039;-85
2023/08/06 04:55:06;;;;;;;1.33;0.47;;;;;;;16.55;99.34;93494.31;5039732;28;20028;-84
2023/08/06 04:57:31;;;;;;;1.33;0.32;;;;;;;16.55;98.91;93489.03;5057693;28;20097;-84
2023/08/06 04:59:57;;;;;;;2.78;0.47;;;;;;;16.53;97.27;93499.94;5055967;28;20032;-85
2023/08/06 05:02:41;;;;;;;2.28;0.30;;;;;;;16.49;100.00;93490.34;5056523;28;20446;-84
2023/08/06 05:05:25;;;;;;;2.80;0.75;;;;;;;16.41;100.00;93484.03;5056419;28;20029;-85
2023/08/06 05:07:50;;;;;;;4.95;0.60;;;;;;;16.39;100.00;93491.53;5057927;28;20060;-84
2023/08/06 05:10:16;;;;;;;0.52;0.45;;;;;;;16.45;99.54;93492.84;5057429;28;20103;-85
2023/08/06 05:12:42;;;;;;;0.90;0.50;;;;;;;16.39;100.00;93492.28;5057718;28;20094;-86
2023/08/06 05:15:07;;;;;;;1.75;0.50;;;;;;;16.53;99.91;93491.22;5056181;28;20021;-85
2023/08/06 05:17:33;;;;;;;3.53;0.77;;;;;;;16.62;97.99;93504.38;5056450;28;20029;-84
2023/08/06 05:19:59;;;;;;;0.68;0.40;;;;;;;16.62;100.00;93502.50;5056356;28;20064;-86
2023/08/06 05:22:24;;;;;;;0.80;0.55;;;;;;;16.71;98.54;93505.06;5039373;28;20029;-85
2023/08/06 05:24:50;;;;;;;1.67;0.70;;;;;;;16.71;98.18;93502.41;5056106;28;20324;-85
2023/08/06 05:27:15;;;;;;;1.13;0.68;;;;;;;16.85;95.60;93499.44;5057472;28;20087;-85
2023/08/06 05:29:59;;;;;;;1.65;0.73;;;;;;;16.84;100.00;93499.81;5055853;28;20029;-87
2023/08/06 05:35:09;;;;;;;3.15;0.70;;;;;;;17.09;99.98;93506.72;5056427;28;20338;-89
2023/08/06 05:37:34;;;;;;;2.38;0.75;;;;;;;17.18;95.50;93511.91;5056178;28;20025;-87
2023/08/06 05:40:19;;;;;;;1.30;0.90;;;;;;;17.27;99.76;93511.00;5057172;28;20028;-86
2023/08/06 05:43:03;;;;;;;4.18;0.93;;;;;;;17.34;97.73;93505.94;5039313;28;20025;-86
2023/08/06 05:45:28;;;;;;;2.35;0.80;;;;;;;17.48;90.76;93509.03;5056931;28;20351;-86
2023/08/06 05:47:57;;;;;;;3.38;0.80;;;;;;;17.53;99.59;93516.00;5039310;28;20036;-86
2023/08/06 05:50:23;;;;;;;3.25;0.82;;;;;;;17.62;93.05;93518.50;5056761;28;20109;-86
2023/08/06 05:52:48;;;;;;;3.72;1.10;;;;;;;17.67;97.76;93523.56;5055653;28;20033;-87
2023/08/06 05:55:13;;;;;;;8.07;1.00;;;;;;;17.75;94.20;93524.56;5058992;28;20037;-86
2023/08/06 05:57:39;;;;;;;2.88;0.80;;;;;;;17.81;94.56;93524.00;5065112;28;20027;-86
2023/08/06 06:02:49;;;;;;;7.18;1.15;;;;;;;17.77;100.00;93533.72;5035744;28;20469;-88
2023/08/06 06:05:14;;;;;;;6.15;1.20;;;;;;;17.86;100.00;93548.72;5052508;28;20029;-87
2023/08/06 06:07:40;;;;;;;7.95;1.58;;;;;;;17.98;99.57;93535.44;5019942;28;20022;-89
2023/08/06 06:10:06;;;;;;;4.10;1.48;;;;;;;18.00;95.15;93535.88;5035619;28;20022;-88
2023/08/06 06:12:31;;;;;;;5.75;1.63;;;;;;;18.02;95.95;93527.63;5052673;28;20021;-88
2023/08/06 06:17:41;;;;;;;5.97;1.52;;;;;;;18.15;99.67;93526.50;5047581;28;20067;-87
2023/08/06 06:20:07;;;;;;;4.93;1.40;;;;;;;18.21;97.33;93519.09;5056629;28;20033;-87
2023/08/06 06:22:32;;;;;;;7.22;1.60;;;;;;;18.14;97.78;93524.97;5057101;28;20091;-88
2023/08/06 06:24:57;;;;;;;6.22;1.40;;;;;;;18.21;99.21;93524.41;5055753;28;20036;-85
2023/08/06 06:27:44;;;;;;;6.68;1.40;;;;;;;18.28;100.00;93531.78;5042670;28;20123;-87
2023/08/06 06:30:11;;;;;;;3.67;1.02;;;;;;;18.28;100.00;93537.09;5045830;28;20025;-89
2023/08/06 06:32:56;;;;;;;7.90;1.73;;;;;;;18.30;100.00;93533.00;5043407;28;20327;-90
2023/08/06 06:35:21;;;;;;;6.07;1.55;;;;;;;18.29;100.00;93531.44;5054136;28;20115;-88
2023/08/06 06:37:47;;;;;;;9.18;1.60;;;;;;;18.30;100.00;93538.28;5055862;28;20449;-91
2023/08/06 06:40:12;;;;;;;9.82;1.70;;;;;;;18.29;100.00;93541.28;5051440;28;20033;-93
2023/08/06 06:42:56;;;;;;;9.35;2.00;;;;;;;18.31;100.00;93550.44;5054820;28;20086;-88
2023/08/06 06:45:22;;;;;;;11.00;2.03;;;;;;;18.32;100.00;93543.25;5055704;28;20077;-89
2023/08/06 06:47:47;;;;;;;7.70;1.67;;;;;;;18.34;100.00;93538.38;5054544;28;20069;-91
2023/08/06 06:50:13;;;;;;;9.27;1.95;;;;;;;18.34;100.00;93536.50;5050877;28;20064;-93
2023/08/06 06:52:38;;;;;;;7.63;1.95;;;;;;;18.45;100.00;93539.44;5035781;28;20048;-89
2023/08/06 06:55:04;;;;;;;7.63;1.63;;;;;;;18.60;100.00;93537.19;5036194;28;20032;-86
2023/08/06 07:00:51;;;;;;;8.75;1.85;;;;;;;18.76;100.00;93529.28;5042235;28;20090;-90
2023/08/06 07:03:17;;;;;;;8.50;2.03;;;;;;;18.64;100.00;93536.16;5055271;28;20319;-91
2023/08/06 07:05:45;;;;;;;6.22;1.65;;;;;;;18.82;100.00;93537.75;5054246;28;20036;-90
2023/08/06 07:08:11;;;;;;;3.22;1.27;;;;;;;18.76;100.00;93537.22;5040960;28;20025;-86
2023/08/06 07:10:36;;;;;;;7.03;1.88;;;;;;;18.85;100.00;93540.47;5040573;28;20382;-88
2023/08/06 07:13:02;;;;;;;10.52;1.50;;;;;;;18.74;100.00;93529.59;5054949;28;20029;-88
2023/08/06 07:15:27;;;;;;;5.25;1.85;;;;;;;19.03;100.00;93529.59;5053641;28;20032;-86
2023/08/06 07:18:11;;;;;;;8.05;1.92;;;;;;;19.19;100.00;93532.25;5051628;28;20025;-91
2023/08/06 07:20:37;;;;;;;8.93;2.08;;;;;;;19.45;100.00;93545.03;5047597;28;20031;-88
2023/08/06 07:23:22;;;;;;;8.00;1.63;;;;;;;19.81;100.00;93538.97;5057915;28;20029;-87
2023/08/06 07:25:47;;;;;;;6.93;1.70;;;;;;;19.78;100.00;93543.88;5053987;28;20074;-89
2023/08/06 07:28:14;;;;;;;11.57;1.63;;;;;;;20.02;100.00;93546.66;5033322;28;20025;-87
2023/08/06 07:30:40;;;;;;;6.60;1.10;;;;;;;20.16;100.00;93532.94;5043786;28;20395;-87
2023/08/06 07:33:06;;;;;;;10.38;1.45;;;;;;;20.11;100.00;93530.53;5059757;28;20028;-85
2023/08/06 07:35:50;;;;;;;14.10;2.10;;;;;;;20.02;100.00;93541.34;5054523;28;20051;-89
2023/08/06 07:38:15;;;;;;;5.60;1.42;;;;;;;19.85;100.00;93545.13;5057054;28;20438;-89
2023/08/06 07:40:42;;;;;;;9.18;1.88;;;;;;;20.01;100.00;93542.47;5058116;28;20029;-92
2023/08/06 07:43:26;;;;;;;10.20;2.28;;;;;;;19.93;100.00;93541.56;5047808;28;20382;-89
2023/08/06 07:45:51;;;;;;;3.33;1.23;;;;;;;20.16;100.00;93548.88;5048719;28;20032;-86
2023/08/06 07:48:35;;;;;;;4.60;1.33;;;;;;;20.35;100.00;93548.09;5056851;28;20028;-88
2023/08/06 07:51:01;;;;;;;9.25;2.20;;;;;;;20.08;100.00;93555.91;5058803;28;20082;-92
2023/08/06 07:53:48;;;;;;;5.45;2.08;;;;;;;20.38;100.00;93555.41;5057143;28;20409;-85
2023/08/06 07:56:13;;;;;;;10.57;2.10;;;;;;;20.27;100.00;93555.16;5046831;28;20103;-91
2023/08/06 07:58:57;;;;;;;8.35;1.90;;;;;;;20.71;100.00;93564.78;5038372;28;20155;-88
2023/08/06 08:01:22;;;;;;;9.95;2.63;;;;;;;20.82;100.00;93566.91;5046289;28;20466;-86
2023/08/06 08:04:06;;;;;;;7.47;2.50;;;;;;;20.87;100.00;93577.25;5056962;28;20080;-91
2023/08/06 08:06:33;;;;;;;8.95;2.72;;;;;;;20.81;100.00;93579.44;5049259;28;20032;-90
2023/08/06 08:08:58;;;;;;;11.82;2.70;;;;;;;20.75;100.00;93568.28;5036466;28;20025;-88
2023/08/06 08:11:25;;;;;;;8.88;2.60;;;;;;;20.86;100.00;93571.16;5036757;28;20022;-90
2023/08/06 08:13:50;;;;;;;9.65;2.60;;;;;;;20.99;100.00;93569.13;5036566;28;20025;-86
2023/08/06 08:16:16;;;;;;;7.05;2.42;;;;;;;20.96;100.00;93567.16;5036506;28;20347;-87
2023/08/06 08:18:41;;;;;;;10.02;2.45;;;;;;;21.12;100.00;93558.31;5037523;28;20067;-85
2023/08/06 08:24:30;;;;;;;10.43;2.60;;;;;;;21.29;100.00;93567.72;5045209;28;20751;-86
2023/08/06 08:26:56;;;;;;;9.23;2.33;;;;;;;21.45;100.00;93567.59;5056811;28;20546;-89
2023/08/06 08:29:21;;;;;;;8.95;2.45;;;;;;;21.08;100.00;93552.91;5036944;28;20128;-90
2023/08/06 08:31:49;;;;;;;10.52;2.65;;;;;;;21.19;100.00;93553.09;5049201;28;20017;-88
2023/08/06 08:34:15;;;;;;;8.98;2.47;;;;;;;21.32;99.78;93549.13;5052962;28;20426;-88
2023/08/06 08:36:47;;;;;;;7.60;2.08;;;;;;;21.32;99.30;93551.78;5044191;28;20116;-86
2023/08/06 08:39:31;;;;;;;9.00;2.08;;;;;;;21.25;100.00;93551.69;5071814;28;20113;-91
2023/08/06 08:41:56;;;;;;;15.38;3.35;;;;;;;21.28;100.00;93556.31;5036210;28;20073;-90
2023/08/06 08:44:41;;;;;;;20.52;2.42;;;;;;;21.65;100.00;93556.84;5049664;28;20083;-88
2023/08/06 08:47:09;;;;;;;7.53;2.10;;;;;;;21.90;97.31;93551.94;5050586;28;20343;-86
2023/08/06 08:49:54;;;;;;;8.23;1.92;;;;;;;21.95;89.74;93550.84;5034888;28;20024;-85
2023/08/06 08:52:22;;;;;;;8.30;2.00;;;;;;;21.92;94.39;93554.22;5043321;28;20036;-89
2023/08/06 08:54:51;;;;;;;8.90;1.80;;;;;;;22.13;97.41;93562.53;5050512;28;20075;-87
2023/08/06 08:57:19;;;;;;;6.57;1.67;;;;;;;22.12;98.42;93563.69;5054992;28;20435;-87
2023/08/06 08:59:45;;;;;;;5.85;2.00;;;;;;;22.34;100.00;93555.94;5035582;28;20044;-86
2023/08/06 09:07:48;;;;;;;2.40;1.42;;;;;;;22.35;79.98;93559.38;5055198;28;20035;-85
2023/08/06 09:10:14;;;;;;;5.60;1.70;;;;;;;22.77;95.54;93549.59;5035561;28;20435;-86
2023/08/06 09:15:25;;;;;;;3.20;1.15;;;;;;;22.14;77.19;93561.41;5036878;28;20032;-89
2023/08/06 09:20:39;;;;;;;2.78;1.10;;;;;;;22.43;68.64;93580.47;5043286;28;20120;-89
2023/08/06 09:23:09;;;;;;;3.88;1.10;;;;;;;22.54;69.21;93582.53;5036466;28;20405;-85
2023/08/06 09:25:38;;;;;;;5.68;1.10;;;;;;;22.49;75.95;93590.84;5038471;28;20021;-85
2023/08/06 09:28:43;;;;;;;4.18;1.13;;;;;;;22.41;78.66;93588.06;5051086;28;20036;-87
2023/08/06 09:31:10;;;;;;;3.45;1.10;;;;;;;22.60;78.36;93591.75;5042808;28;20033;-84
2023/08/06 09:33:54;;;;;;;3.50;1.00;;;;;;;22.51;74.78;93593.91;5035900;28;20025;-87
2023/08/06 09:36:57;;;;;;;7.45;1.08;;;;;;;22.61;79.17;93592.53;5056201;28;20146;-88
2023/08/06 09:39:45;;;;;;;8.40;1.65;;;;;;;22.74;68.51;93597.25;5054593;28;20040;-87
2023/08/06 09:42:14;;;;;;;5.85;1.25;;;;;;;22.80;70.95;93592.34;5035833;28;20457;-84
2023/08/06 09:44:40;;;;;;;3.20;0.90;;;;;;;22.72;72.04;93594.19;5041269;28;20037;-86
2023/08/06 09:47:08;;;;;;;6.28;1.23;;;;;;;22.79;78.00;93590.03;5043274;28;20079;-86
2023/08/06 09:49:36;;;;;;;4.95;1.08;;;;;;;23.06;76.19;93598.75;5045358;28;20045;-85
2023/08/06 09:52:02;;;;;;;3.35;0.95;;;;;;;22.87;65.72;93586.34;5058031;28;20036;-90
2023/08/06 09:54:28;;;;;;;6.55;1.20;;;;;;;22.92;71.61;93594.00;5043875;28;20087;-85
2023/08/06 09:56:57;;;;;;;2.50;1.05;;;;;;;23.06;60.32;93592.63;5046730;28;20041;-89
2023/08/06 09:59:45;;;;;;;3.20;1.13;;;;;;;23.07;64.42;93591.50;5044028;28;20032;-90
2023/08/06 10:02:13;;;;;;;3.88;1.20;;;;;;;23.02;65.24;93589.91;5053146;28;20028;-85
2023/08/06 10:04:39;;;;;;;5.47;1.13;;;;;;;23.07;66.34;93596.84;5052764;28;20025;-84
2023/08/06 10:07:04;;;;;;;4.43;1.15;;;;;;;22.83;62.10;93590.88;5046838;28;20025;-84
2023/08/06 10:09:30;;;;;;;3.90;1.08;;;;;;;23.09;69.78;93589.22;5044041;28;20037;-87
2023/08/06 10:12:14;;;;;;;7.25;1.20;;;;;;;23.19;60.30;93591.22;5040858;28;20025;-85
2023/08/06 10:14:41;;;;;;;3.47;1.15;;;;;;;23.38;60.88;93584.94;5023839;28;20453;-84
2023/08/06 10:17:25;;;;;;;5.18;1.15;;;;;;;23.25;79.33;93581.75;5042886;28;20078;-84
2023/08/06 10:19:51;;;;;;;3.00;1.30;;;;;;;22.91;86.46;93579.13;5049218;28;20454;-83
2023/08/06 10:22:36;;;;;;;2.67;1.35;;;;;;;23.23;72.98;93586.69;5039313;28;20045;-84
2023/08/06 10:25:04;;;;;;;8.70;1.45;;;;;;;23.41;80.00;93596.81;5034663;28;20055;-84
2023/08/06 10:27:34;;;;;;;6.75;1.63;;;;;;;23.23;65.48;93596.63;5044223;28;20028;-87
2023/08/06 10:30:31;;;;;;;6.57;1.33;;;;;;;23.41;68.81;93599.50;5048053;28;20036;-83
2023/08/06 10:33:18;;;;;;;3.83;1.02;;;;;;;23.45;58.01;93576.22;5039154;28;20040;-87
2023/08/06 10:35:49;;;;;;;2.17;0.95;;;;;;;23.52;56.34;93604.94;5045028;28;20034;-87
2023/08/06 10:38:15;;;;;;;2.70;1.05;;;;;;;23.57;65.28;93588.53;5045136;28;20116;-84
2023/08/06 10:41:00;;;;;;;3.53;1.20;;;;;;;23.44;55.16;93594.16;5044563;28;20451;-89
2023/08/06 10:43:41;;;;;;;1.92;1.08;;;;;;;23.42;59.53;93593.00;5044998;28;20404;-86
2023/08/06 10:46:11;;;;;;;5.10;1.83;;;;;;;23.89;63.43;93593.41;5051928;28;20112;-83
2023/08/06 10:48:37;;;;;;;3.33;1.50;;;;;;;24.13;64.53;93605.44;5054023;28;20052;-85
2023/08/06 10:51:03;;;;;;;4.55;0.90;;;;;;;23.81;54.13;93591.78;5041425;28;20033;-88
2023/08/06 10:53:29;;;;;;;2.60;1.13;;;;;;;24.31;55.78;93588.69;5044733;28;20425;-84
2023/08/06 10:55:54;;;;;;;3.83;1.13;;;;;;;24.14;56.57;93600.81;5046491;28;20068;-83
2023/08/06 10:58:19;;;;;;;2.95;1.10;;;;;;;23.99;57.15;93594.59;5047782;28;20052;-87
2023/08/06 11:00:45;;;;;;;3.60;1.10;;;;;;;24.16;53.43;93603.88;5054923;28;20037;-86
2023/08/06 11:03:11;;;;;;;1.90;0.90;;;;;;;23.92;52.37;93594.53;5047503;28;20033;-86
2023/08/06 11:05:55;;;;;;;3.78;1.00;;;;;;;23.54;48.10;93583.94;5055763;28;20044;-84
2023/08/06 11:08:28;;;;;;;3.05;0.80;;;;;;;23.65;57.18;93592.03;5043800;28;20025;-86
2023/08/06 11:10:53;;;;;;;6.57;0.90;;;;;;;23.99;67.88;93589.25;5025471;28;20052;-85
2023/08/06 11:13:39;;;;;;;2.30;0.90;;;;;;;24.22;57.85;93601.63;5057234;28;20385;-84
2023/08/06 11:16:05;;;;;;;3.15;1.10;;;;;;;23.90;55.33;93588.78;5047624;28;20029;-85
2023/08/06 11:18:31;;;;;;;2.88;0.73;;;;;;;23.86;51.17;93584.19;5036918;28;20028;-89
2023/08/06 11:20:59;;;;;;;2.60;0.95;;;;;;;23.92;48.47;93589.19;5036731;28;20026;-84
2023/08/06 11:23:29;;;;;;;2.47;0.90;;;;;;;24.06;51.84;93591.22;5057144;28;20033;-84
2023/08/06 11:28:40;;;;;;;1.92;0.82;;;;;;;24.04;52.05;93585.50;5056510;28;20033;-84
2023/08/06 11:31:05;;;;;;;3.40;1.10;;;;;;;24.31;51.07;93588.69;5055217;28;20346;-85
2023/08/06 11:33:31;;;;;;;8.35;1.25;;;;;;;24.50;46.94;93578.84;5058471;28;20124;-83
2023/08/06 11:38:42;;;;;;;2.80;1.00;;;;;;;24.48;54.81;93575.78;5045149;28;20033;-85
2023/08/06 11:41:30;;;;;;;1.25;0.90;;;;;;;24.36;46.74;93569.59;5039560;28;20029;-87
2023/08/06 11:43:56;;;;;;;3.88;0.85;;;;;;;24.59;47.25;93583.84;5049886;28;20728;-85
2023/08/06 11:49:05;;;;;;;3.80;1.13;;;;;;;24.77;45.93;93581.28;5043886;28;20080;-83
2023/08/06 11:51:51;;;;;;;2.78;0.88;;;;;;;24.65;51.63;93585.78;5053254;28;20025;-86
2023/08/06 11:54:37;;;;;;;1.88;1.00;;;;;;;24.90;48.48;93581.72;5050288;28;20107;-84
2023/08/06 11:57:03;;;;;;;3.22;0.90;;;;;;;24.96;51.04;93580.97;5038583;28;20035;-84
2023/08/06 11:59:28;;;;;;;2.17;1.00;;;;;;;25.09;49.80;93569.88;5052332;28;20032;-84
2023/08/06 12:02:12;;;;;;;2.08;1.10;;;;;;;24.58;49.76;93580.41;5051106;28;20025;-85
2023/08/06 12:05:04;;;;;;;2.58;1.08;;;;;;;24.49;46.12;93579.97;5048491;28;20039;-84
2023/08/06 12:07:36;;;;;;;2.17;0.90;;;;;;;24.49;47.39;93571.94;5042679;28;20030;-83
2023/08/06 12:13:04;;;;;;;2.22;1.23;;;;;;;24.74;46.82;93582.75;5046521;28;20056;-83
2023/08/06 12:15:30;;;;;;;8.05;1.05;;;;;;;24.75;47.95;93573.59;5050336;28;20057;-86
2023/08/06 12:21:35;;;;;;;2.35;1.00;;;;;;;25.10;50.73;93561.47;5037287;28;20028;-83
2023/08/06 12:24:01;;;;;;;2.30;0.95;;;;;;;25.32;46.46;93568.78;5037412;28;20382;-84
2023/08/06 12:26:26;;;;;;;3.33;1.00;;;;;;;25.18;45.12;93572.97;5043734;28;20025;-84
2023/08/06 12:28:54;;;;;;;2.10;1.00;;;;;;;25.12;54.38;93583.28;5047090;28;20032;-84
2023/08/06 12:31:20;;;;;;;4.38;1.00;;;;;;;25.21;56.10;93576.81;5046893;28;20419;-84
2023/08/06 12:36:29;;;;;;;1.75;0.90;;;;;;;25.39;46.77;93576.81;5044901;28;20086;-83
2023/08/06 12:38:55;;;;;;;3.90;1.00;;;;;;;25.14;52.61;93572.19;5047108;28;20396;-83
2023/08/06 12:41:20;;;;;;;1.50;0.80;;;;;;;25.13;50.22;93574.09;5036841;28;20033;-83
2023/08/06 12:43:46;;;;;;;1.30;0.98;;;;;;;25.65;48.84;93575.72;5038335;28;20151;-84
2023/08/06 12:46:12;;;;;;;4.05;1.05;;;;;;;25.03;53.98;93576.75;5038548;28;20052;-82
2023/08/06 12:51:21;;;;;;;4.53;1.15;;;;;;;25.83;44.34;93574.94;5052726;28;20513;-84
2023/08/06 12:53:47;;;;;;;1.38;0.80;;;;;;;26.00;42.61;93580.66;5052254;28;20033;-83
2023/08/06 12:56:12;;;;;;;2.83;0.88;;;;;;;26.20;47.23;93578.38;5041184;28;20124;-83
2023/08/06 12:58:39;;;;;;;2.40;0.90;;;;;;;26.24;48.54;93585.25;5047235;28;20036;-84
2023/08/06 13:01:05;;;;;;;1.40;0.93;;;;;;;25.30;47.96;93589.84;5047827;28;20025;-83
2023/08/06 13:03:49;;;;;;;2.20;0.85;;;;;;;24.87;47.07;93585.91;5055147;28;20021;-83
2023/08/06 13:06:14;;;;;;;2.58;1.30;;;;;;;25.56;45.49;93586.06;5055188;28;20031;-83